createdAt,value
2023-07-20T00:01:46.281Z,60.05
2023-07-20T00:04:18.780Z,60.02
2023-07-20T00:06:51.339Z,60.03
2023-07-20T00:09:23.950Z,60.09
2023-07-20T00:11:56.781Z,60.18
2023-07-20T00:14:29.289Z,60.13
2023-07-20T00:17:01.727Z,60.13
2023-07-20T00:19:34.347Z,60.10
2023-07-20T00:22:07.654Z,60.12
2023-07-20T00:24:40.547Z,60.10
2023-07-20T00:27:13.018Z,60.11
2023-07-20T00:29:45.486Z,60.22
2023-07-20T00:32:18.227Z,60.26
2023-07-20T00:34:50.561Z,60.33
2023-07-20T00:37:22.940Z,60.37
2023-07-20T00:39:55.733Z,60.40
2023-07-20T00:42:28.544Z,60.39
2023-07-20T00:45:01.366Z,60.36
2023-07-20T00:47:35.689Z,60.34
2023-07-20T00:50:12.619Z,60.32
2023-07-20T00:52:45.709Z,60.28
2023-07-20T00:55:18.752Z,60.29
2023-07-20T00:57:51.892Z,60.36
2023-07-20T01:00:24.592Z,60.48
2023-07-20T01:02:57.238Z,60.57
2023-07-20T01:05:40.734Z,60.58
2023-07-20T01:08:24.185Z,60.44
2023-07-20T01:11:01.428Z,60.57
2023-07-20T01:13:34.605Z,60.66
2023-07-20T01:16:07.473Z,60.73
2023-07-20T01:18:40.765Z,60.65
2023-07-20T01:21:20.642Z,60.71
2023-07-20T01:24:20.001Z,60.59
2023-07-20T01:27:11.697Z,60.62
2023-07-20T01:30:05.982Z,60.59
2023-07-20T01:32:40.845Z,60.66
2023-07-20T01:35:16.640Z,60.63
2023-07-20T01:37:50.362Z,60.70
2023-07-20T01:40:26.422Z,60.72
2023-07-20T01:42:59.102Z,60.66
2023-07-20T01:45:31.903Z,60.75
2023-07-20T01:48:04.787Z,60.69
2023-07-20T01:50:37.206Z,60.76
2023-07-20T01:53:09.496Z,60.70
2023-07-20T01:55:42.614Z,60.71
2023-07-20T01:58:15.192Z,60.73
2023-07-20T02:00:47.936Z,60.87
2023-07-20T02:03:20.259Z,60.75
2023-07-20T02:05:52.783Z,60.71
2023-07-20T02:08:25.343Z,60.94
2023-07-20T02:10:57.770Z,60.82
2023-07-20T02:13:30.543Z,60.84
2023-07-20T02:16:03.343Z,60.88
2023-07-20T02:18:36.506Z,60.87
2023-07-20T02:21:08.902Z,60.87
2023-07-20T02:23:41.288Z,60.80
2023-07-20T02:26:13.665Z,60.78
2023-07-20T02:28:46.200Z,60.77
2023-07-20T02:31:19.110Z,60.64
2023-07-20T02:33:51.687Z,60.90
2023-07-20T02:36:24.640Z,60.92
2023-07-20T02:38:57.556Z,60.91
2023-07-20T02:41:30.021Z,61.07
2023-07-20T02:44:03.220Z,61.03
2023-07-20T02:46:36.662Z,61.09
2023-07-20T02:49:09.316Z,61.07
2023-07-20T02:51:42.038Z,61.14
2023-07-20T02:54:14.679Z,61.16
2023-07-20T02:56:47.185Z,61.07
2023-07-20T02:59:20.011Z,61.22
2023-07-20T03:01:52.653Z,61.19
2023-07-20T03:04:26.105Z,61.19
2023-07-20T03:06:58.565Z,61.24
2023-07-20T03:09:30.916Z,61.29
2023-07-20T03:12:06.177Z,61.28
2023-07-20T03:14:38.797Z,61.35
2023-07-20T03:17:11.333Z,61.25
2023-07-20T03:19:44.530Z,61.34
2023-07-20T03:22:17.214Z,61.36
2023-07-20T03:24:49.637Z,61.38
2023-07-20T03:27:21.903Z,61.30
2023-07-20T03:29:54.685Z,61.21
2023-07-20T03:32:27.184Z,61.11
2023-07-20T03:34:59.496Z,61.27
2023-07-20T03:37:32.455Z,61.19
2023-07-20T03:40:06.014Z,61.23
2023-07-20T03:42:39.888Z,61.22
2023-07-20T03:45:14.795Z,61.31
2023-07-20T03:47:49.617Z,61.23
2023-07-20T03:50:22.400Z,61.14
2023-07-20T03:52:55.261Z,61.09
2023-07-20T03:55:27.670Z,61.20
2023-07-20T03:58:00.371Z,61.23
2023-07-20T04:00:32.735Z,61.28
2023-07-20T04:03:05.377Z,61.33
2023-07-20T04:05:37.922Z,61.30
2023-07-20T04:08:10.435Z,61.37
2023-07-20T04:10:45.570Z,61.36
2023-07-20T04:13:18.158Z,61.33
2023-07-20T04:15:50.526Z,61.34
2023-07-20T04:18:23.137Z,61.31
2023-07-20T04:20:55.525Z,61.30
2023-07-20T04:23:28.224Z,61.33
2023-07-20T04:26:01.796Z,61.31
2023-07-20T04:28:35.066Z,61.27
2023-07-20T04:31:17.954Z,61.23
2023-07-20T04:33:50.669Z,61.23
2023-07-20T04:36:24.080Z,61.13
2023-07-20T04:38:58.151Z,61.22
2023-07-20T04:41:31.969Z,61.11
2023-07-20T04:44:06.271Z,61.21
2023-07-20T04:46:38.817Z,61.15
2023-07-20T04:49:13.865Z,61.16
2023-07-20T04:51:49.057Z,61.30
2023-07-20T04:54:22.975Z,61.32
2023-07-20T04:56:55.791Z,61.21
2023-07-20T04:59:28.882Z,61.28
2023-07-20T05:02:01.715Z,61.20
2023-07-20T05:04:38.959Z,61.25
2023-07-20T05:07:12.471Z,61.28
2023-07-20T05:09:45.100Z,61.30
2023-07-20T05:12:19.853Z,61.21
2023-07-20T05:14:53.249Z,61.25
2023-07-20T05:17:25.964Z,61.17
2023-07-20T05:19:58.796Z,61.03
2023-07-20T05:22:31.880Z,61.10
2023-07-20T05:25:04.446Z,61.02
2023-07-20T05:27:37.288Z,61.10
2023-07-20T05:30:11.561Z,60.93
2023-07-20T05:32:46.660Z,60.98
2023-07-20T05:35:19.382Z,61.06
2023-07-20T05:37:52.077Z,61.00
2023-07-20T05:40:24.821Z,61.01
2023-07-20T05:42:58.175Z,60.71
2023-07-20T05:45:30.795Z,60.75
2023-07-20T05:48:03.422Z,60.97
2023-07-20T05:50:36.104Z,60.85
2023-07-20T05:53:08.669Z,60.86
2023-07-20T05:55:41.914Z,60.76
2023-07-20T05:58:16.380Z,60.62
2023-07-20T06:00:52.035Z,60.49
2023-07-20T06:03:24.720Z,60.55
2023-07-20T06:06:02.164Z,60.59
2023-07-20T06:08:34.840Z,60.49
2023-07-20T06:11:07.256Z,60.39
2023-07-20T06:13:39.936Z,60.46
2023-07-20T06:16:12.651Z,60.45
2023-07-20T06:18:46.519Z,60.37
2023-07-20T06:21:19.134Z,60.48
2023-07-20T06:23:51.802Z,60.29
2023-07-20T06:26:24.418Z,60.12
2023-07-20T06:28:57.153Z,59.96
2023-07-20T06:31:29.874Z,59.69
2023-07-20T06:34:02.305Z,59.51
2023-07-20T06:36:35.081Z,59.36
2023-07-20T06:41:44.110Z,59.16
2023-07-20T06:44:17.938Z,58.94
2023-07-20T06:46:50.556Z,58.38
2023-07-20T06:49:29.647Z,58.57
2023-07-20T06:52:02.460Z,58.55
2023-07-20T06:54:36.287Z,58.41
2023-07-20T06:59:47.630Z,58.30
2023-07-20T07:07:33.305Z,57.73
2023-07-20T07:10:06.900Z,57.83
2023-07-20T07:12:40.429Z,57.67
2023-07-20T07:15:14.155Z,57.68
2023-07-20T07:17:46.578Z,57.32
2023-07-20T07:20:21.439Z,57.52
2023-07-20T07:22:54.539Z,57.59
2023-07-20T07:25:28.177Z,57.36
2023-07-20T07:28:00.811Z,57.08
2023-07-20T07:30:34.644Z,56.94
2023-07-20T07:33:07.685Z,56.79
2023-07-20T07:35:40.851Z,56.76
2023-07-20T07:38:26.759Z,56.84
2023-07-20T07:41:05.735Z,56.52
2023-07-20T07:43:39.600Z,56.49
2023-07-20T07:46:11.999Z,56.35
2023-07-20T07:48:44.365Z,55.99
2023-07-20T07:51:17.215Z,55.93
2023-07-20T07:53:50.650Z,56.16
2023-07-20T07:56:24.723Z,55.79
2023-07-20T07:58:57.964Z,55.90
2023-07-20T08:01:30.348Z,55.79
2023-07-20T08:04:03.136Z,55.65
2023-07-20T08:06:35.556Z,55.50
2023-07-20T08:09:08.097Z,55.44
2023-07-20T08:11:43.086Z,55.12
2023-07-20T08:14:16.550Z,55.22
2023-07-20T08:16:49.102Z,55.35
2023-07-20T08:19:21.954Z,55.32
2023-07-20T08:21:54.490Z,55.36
2023-07-20T08:24:27.224Z,55.24
2023-07-20T08:26:59.686Z,55.46
2023-07-20T08:29:32.384Z,55.29
2023-07-20T08:32:05.602Z,55.15
2023-07-20T08:34:38.028Z,55.07
2023-07-20T08:37:11.377Z,55.02
2023-07-20T08:39:44.053Z,55.00
2023-07-20T08:42:19.149Z,55.05
2023-07-20T08:44:52.636Z,54.94
2023-07-20T08:47:27.625Z,54.84
2023-07-20T08:50:01.364Z,54.76
2023-07-20T08:52:35.608Z,54.58
2023-07-20T08:55:09.166Z,54.49
2023-07-20T08:57:43.905Z,54.28
2023-07-20T09:00:15.928Z,54.32
2023-07-20T09:02:50.379Z,54.50
2023-07-20T09:05:25.854Z,53.52
2023-07-20T09:07:59.215Z,54.12
2023-07-20T09:10:31.780Z,53.99
2023-07-20T09:13:04.152Z,53.45
2023-07-20T09:15:36.954Z,53.81
2023-07-20T09:18:09.557Z,53.70
2023-07-20T09:20:43.241Z,53.64
2023-07-20T09:23:16.028Z,53.61
2023-07-20T09:25:52.037Z,53.59
2023-07-20T09:28:24.414Z,53.52
2023-07-20T09:30:59.815Z,53.45
2023-07-20T09:33:32.274Z,53.46
2023-07-20T09:36:23.981Z,53.35
2023-07-20T09:41:46.377Z,52.93
2023-07-20T09:47:00.095Z,53.18
2023-07-20T09:50:26.192Z,53.02
2023-07-20T09:55:03.355Z,52.52
2023-07-20T09:57:37.080Z,52.40
2023-07-20T10:02:52.313Z,51.98
2023-07-20T10:05:26.868Z,52.09
2023-07-20T10:10:34.529Z,52.12
2023-07-20T10:13:08.183Z,51.64
2023-07-20T10:15:44.895Z,51.47
2023-07-20T10:18:25.652Z,51.49
2023-07-20T10:23:35.756Z,51.07
2023-07-20T10:26:09.741Z,50.85
2023-07-20T10:28:42.661Z,50.29
2023-07-20T10:31:17.808Z,50.32
2023-07-20T10:33:51.867Z,50.18
2023-07-20T10:36:31.955Z,50.02
2023-07-20T10:39:04.769Z,49.49
2023-07-20T10:41:41.841Z,49.39
2023-07-20T10:44:14.688Z,49.39
2023-07-20T10:46:48.889Z,49.06
2023-07-20T10:49:27.761Z,48.95
2023-07-20T10:52:06.550Z,48.36
2023-07-20T10:54:51.163Z,48.28
2023-07-20T10:57:34.155Z,47.39
2023-07-20T11:00:24.014Z,47.62
2023-07-20T11:03:02.226Z,46.44
2023-07-20T11:05:41.108Z,46.94
2023-07-20T11:08:36.955Z,46.86
2023-07-20T11:11:28.582Z,47.00
2023-07-20T11:14:03.327Z,46.70
2023-07-20T11:16:46.179Z,46.95
2023-07-20T11:22:03.503Z,46.35
2023-07-20T11:24:37.021Z,45.66
2023-07-20T11:27:09.738Z,45.26
2023-07-20T11:29:42.112Z,45.34
2023-07-20T11:32:14.557Z,44.95
2023-07-20T11:34:51.050Z,44.79
2023-07-20T11:37:24.187Z,44.73
2023-07-20T11:40:00.350Z,44.46
2023-07-20T11:45:09.837Z,43.63
2023-07-20T11:47:45.167Z,43.51
2023-07-20T11:50:17.662Z,43.24
2023-07-20T11:52:50.708Z,42.40
2023-07-20T11:55:24.379Z,42.83
2023-07-20T11:58:10.002Z,41.76
2023-07-20T12:00:46.384Z,42.87
2023-07-20T12:03:20.229Z,42.22
2023-07-20T12:06:01.747Z,42.00
2023-07-20T12:08:34.999Z,40.94
2023-07-20T12:11:07.371Z,41.83
2023-07-20T12:13:47.893Z,40.01
2023-07-20T12:16:20.567Z,40.53
2023-07-20T12:19:01.147Z,40.81
2023-07-20T12:21:34.117Z,40.74
2023-07-20T12:24:07.473Z,39.94
2023-07-20T12:26:40.069Z,39.77
2023-07-20T12:29:12.453Z,40.51
2023-07-20T12:31:45.111Z,40.36
2023-07-20T12:34:17.752Z,39.98
2023-07-20T12:36:50.221Z,40.52
2023-07-20T12:39:22.879Z,39.86
2023-07-20T12:41:55.267Z,39.82
2023-07-20T12:44:28.144Z,40.29
2023-07-20T12:47:00.673Z,39.55
2023-07-20T12:49:33.117Z,39.92
2023-07-20T12:52:05.687Z,39.30
2023-07-20T12:54:38.195Z,40.33
2023-07-20T12:57:13.566Z,39.53
2023-07-20T12:59:46.034Z,40.01
2023-07-20T13:02:18.702Z,39.75
2023-07-20T13:04:51.062Z,40.00
2023-07-20T13:10:11.982Z,39.55
2023-07-20T13:12:44.498Z,39.61
2023-07-20T13:15:17.146Z,39.44
2023-07-20T13:17:50.389Z,39.33
2023-07-20T13:20:23.051Z,39.38
2023-07-20T13:22:55.495Z,39.40
2023-07-20T13:25:29.936Z,39.55
2023-07-20T13:28:02.701Z,39.96
2023-07-20T13:30:35.243Z,40.57
2023-07-20T13:33:07.891Z,40.86
2023-07-20T13:38:17.067Z,41.61
2023-07-20T13:40:50.478Z,41.74
2023-07-20T13:43:23.235Z,42.54
2023-07-20T13:45:55.658Z,42.46
2023-07-20T13:48:28.789Z,42.91
2023-07-20T13:51:01.802Z,42.78
2023-07-20T13:58:45.184Z,43.45
2023-07-20T14:01:29.407Z,43.45
2023-07-20T14:04:04.980Z,43.56
2023-07-20T14:06:38.179Z,43.91
2023-07-20T14:09:10.694Z,43.95
2023-07-20T14:14:19.626Z,45.10
2023-07-20T14:16:52.229Z,44.66
2023-07-20T14:19:24.600Z,44.93
2023-07-20T14:22:00.157Z,45.22
2023-07-20T14:24:32.888Z,45.72
2023-07-20T14:27:05.559Z,45.57
2023-07-20T14:29:38.108Z,46.12
2023-07-20T14:32:11.685Z,46.54
2023-07-20T14:37:17.471Z,46.28
2023-07-20T14:39:50.612Z,46.41
2023-07-20T14:42:23.067Z,46.24
2023-07-20T14:44:56.309Z,46.07
2023-07-20T14:47:29.205Z,46.17
2023-07-20T14:50:01.571Z,45.86
2023-07-20T14:52:33.997Z,46.09
2023-07-20T14:55:08.744Z,46.25
2023-07-20T14:57:41.525Z,46.43
2023-07-20T15:00:16.962Z,45.96
2023-07-20T15:02:49.727Z,46.51
2023-07-20T15:05:27.862Z,46.25
2023-07-20T15:08:00.655Z,46.00
2023-07-20T15:10:33.844Z,46.10
2023-07-20T15:13:06.551Z,46.01
2023-07-20T15:15:38.994Z,46.03
2023-07-20T15:18:11.773Z,46.01
2023-07-20T15:20:44.537Z,46.03
2023-07-20T15:23:17.252Z,46.01
2023-07-20T15:25:49.595Z,45.84
2023-07-20T15:28:21.852Z,45.75
2023-07-20T15:31:03.451Z,45.32
2023-07-20T15:33:36.381Z,45.48
2023-07-20T15:36:10.677Z,45.14
2023-07-20T15:38:43.883Z,45.12
2023-07-20T15:41:27.187Z,45.15
2023-07-20T15:44:04.023Z,44.91
2023-07-20T15:46:51.231Z,44.85
2023-07-20T15:49:25.738Z,45.08
2023-07-20T15:51:58.903Z,45.11
2023-07-20T15:54:35.611Z,45.16
2023-07-20T15:57:13.768Z,44.89
2023-07-20T15:59:47.900Z,44.85
2023-07-20T16:02:21.664Z,44.57
2023-07-20T16:05:14.216Z,44.72
2023-07-20T16:07:49.942Z,44.48
2023-07-20T16:10:25.585Z,44.67
2023-07-20T16:12:59.037Z,44.57
2023-07-20T16:18:16.564Z,44.46
2023-07-20T16:20:51.348Z,44.49
2023-07-20T16:23:23.816Z,44.28
2023-07-20T16:25:56.742Z,44.02
2023-07-20T16:28:29.483Z,43.86
2023-07-20T16:31:02.347Z,44.01
2023-07-20T16:33:34.700Z,43.98
2023-07-20T16:36:10.327Z,43.85
2023-07-20T16:38:44.368Z,43.90
2023-07-20T16:42:02.033Z,43.85
2023-07-20T16:44:09.636Z,43.83
2023-07-20T16:49:17.629Z,43.89
2023-07-20T16:51:50.111Z,43.76
2023-07-20T16:54:22.698Z,43.97
2023-07-20T16:56:55.177Z,43.93
2023-07-20T16:59:27.741Z,43.93
2023-07-20T17:02:00.591Z,43.71
2023-07-20T17:04:33.159Z,43.75
2023-07-20T17:07:06.834Z,43.62
2023-07-20T17:09:40.138Z,43.66
2023-07-20T17:12:14.680Z,43.89
2023-07-20T17:14:47.362Z,43.78
2023-07-20T17:17:21.879Z,43.94
2023-07-20T17:20:52.243Z,43.86
2023-07-20T17:22:45.435Z,44.00
2023-07-20T17:30:30.248Z,44.22
2023-07-20T17:33:02.680Z,44.18
2023-07-20T17:35:35.664Z,44.24
2023-07-20T17:40:43.884Z,44.55
2023-07-20T17:43:16.562Z,44.53
2023-07-20T17:45:51.947Z,44.74
2023-07-20T17:48:24.396Z,44.71
2023-07-20T17:50:57.849Z,44.82
2023-07-20T17:53:30.508Z,44.82
2023-07-20T17:56:03.572Z,44.85
2023-07-20T17:58:36.118Z,44.94
2023-07-20T18:01:08.795Z,45.06
2023-07-20T18:03:41.485Z,45.10
2023-07-20T18:06:13.899Z,45.19
2023-07-20T18:08:46.553Z,45.35
2023-07-20T18:11:20.267Z,45.36
2023-07-20T18:13:52.988Z,45.48
2023-07-20T18:16:25.395Z,45.60
2023-07-20T18:18:59.073Z,45.66
2023-07-20T18:21:31.958Z,45.78
2023-07-20T18:24:04.928Z,45.92
2023-07-20T18:26:37.404Z,45.99
2023-07-20T18:29:10.200Z,46.09
2023-07-20T18:31:43.174Z,46.19
2023-07-20T18:34:15.998Z,46.28
2023-07-20T18:36:48.988Z,46.40
2023-07-20T18:39:21.391Z,46.40
2023-07-20T18:41:54.443Z,46.46
2023-07-20T18:44:27.966Z,46.63
2023-07-20T18:47:02.509Z,46.71
2023-07-20T18:49:33.449Z,46.79
2023-07-20T18:52:06.883Z,46.79
2023-07-20T18:54:39.260Z,46.98
2023-07-20T18:57:11.691Z,47.00
2023-07-20T18:59:45.297Z,47.10
2023-07-20T19:02:18.062Z,47.22
2023-07-20T19:04:50.569Z,47.25
2023-07-20T19:07:23.008Z,47.33
2023-07-20T19:09:55.626Z,47.42
2023-07-20T19:12:28.010Z,47.57
2023-07-20T19:15:01.539Z,47.55
2023-07-20T19:17:34.186Z,47.68
2023-07-20T19:20:08.186Z,47.73
2023-07-20T19:22:40.889Z,47.80
2023-07-20T19:25:13.844Z,47.78
2023-07-20T19:27:46.402Z,47.90
2023-07-20T19:30:19.044Z,48.08
2023-07-20T19:32:52.516Z,48.13
2023-07-20T19:35:25.449Z,48.34
2023-07-20T19:37:57.937Z,48.32
2023-07-20T19:40:30.639Z,48.47
2023-07-20T19:43:04.759Z,48.58
2023-07-20T19:45:37.641Z,48.63
2023-07-20T19:48:10.232Z,48.71
2023-07-20T19:50:47.887Z,48.82
2023-07-20T19:56:05.171Z,49.14
2023-07-20T19:58:38.337Z,49.28
2023-07-20T20:03:48.749Z,49.44
2023-07-20T20:06:21.573Z,49.56
2023-07-20T20:08:54.204Z,49.84
2023-07-20T20:11:27.480Z,49.92
2023-07-20T20:14:00.676Z,50.05
2023-07-20T20:16:34.448Z,50.12
2023-07-20T20:19:07.583Z,50.19
2023-07-20T20:21:40.045Z,50.29
2023-07-20T20:24:12.934Z,50.50
2023-07-20T20:26:45.705Z,50.64
2023-07-20T20:29:18.271Z,50.68
2023-07-20T20:31:50.722Z,50.84
2023-07-20T20:34:23.829Z,50.96
2023-07-20T20:36:58.340Z,51.08
2023-07-20T20:39:29.464Z,51.18
2023-07-20T20:42:02.619Z,51.14
2023-07-20T20:44:37.966Z,51.34
2023-07-20T20:47:11.155Z,51.43
2023-07-20T20:49:47.292Z,51.42
2023-07-20T20:52:20.383Z,51.57
2023-07-20T20:54:53.419Z,51.70
2023-07-20T20:57:26.073Z,51.79
2023-07-20T20:59:59.461Z,51.81
2023-07-20T21:02:33.325Z,51.81
2023-07-20T21:05:07.423Z,52.01
2023-07-20T21:07:40.642Z,52.05
2023-07-20T21:10:13.443Z,52.22
2023-07-20T21:12:46.095Z,52.19
2023-07-20T21:15:19.042Z,52.37
2023-07-20T21:17:53.746Z,52.50
2023-07-20T21:20:24.862Z,52.58
2023-07-20T21:22:57.674Z,52.48
2023-07-20T21:25:31.262Z,52.59
2023-07-20T21:28:05.315Z,52.74
2023-07-20T21:30:39.531Z,52.72
2023-07-20T21:33:24.436Z,52.79
2023-07-20T21:36:06.918Z,52.83
2023-07-20T21:38:46.124Z,53.06
2023-07-20T21:41:24.853Z,53.03
2023-07-20T21:43:59.222Z,53.05
2023-07-20T21:46:32.486Z,53.22
2023-07-20T21:49:04.916Z,53.31
2023-07-20T21:51:38.033Z,53.50
2023-07-20T21:54:11.000Z,53.46
2023-07-20T21:56:43.711Z,53.51
2023-07-20T21:59:16.813Z,53.78
2023-07-20T22:01:59.712Z,53.82
2023-07-20T22:04:33.545Z,53.91
2023-07-20T22:07:15.051Z,54.07
2023-07-20T22:09:47.748Z,54.10
2023-07-20T22:12:22.887Z,54.16
2023-07-20T22:14:56.897Z,54.29
2023-07-20T22:17:29.290Z,54.42
2023-07-20T22:20:04.371Z,54.62
2023-07-20T22:22:37.149Z,54.59
2023-07-20T22:25:10.106Z,54.58
2023-07-20T22:27:42.409Z,54.76
2023-07-20T22:30:20.170Z,54.78
2023-07-20T22:32:53.083Z,54.98
2023-07-20T22:35:26.127Z,54.96
2023-07-20T22:37:58.375Z,55.02
2023-07-20T22:40:34.448Z,55.14
2023-07-20T22:43:06.877Z,55.11
2023-07-20T22:45:39.639Z,55.17
2023-07-20T22:48:12.737Z,55.21
2023-07-20T22:50:47.139Z,55.23
2023-07-20T22:53:19.743Z,55.41
2023-07-20T22:55:52.581Z,55.56
2023-07-20T22:58:25.599Z,55.49
2023-07-20T23:00:58.216Z,55.52
2023-07-20T23:03:32.379Z,55.64
2023-07-20T23:06:04.912Z,55.84
2023-07-20T23:08:37.689Z,55.78
2023-07-20T23:11:10.475Z,55.78
2023-07-20T23:13:45.653Z,55.93
2023-07-20T23:16:18.038Z,55.87
2023-07-20T23:18:50.555Z,55.91
2023-07-20T23:21:23.240Z,56.03
2023-07-20T23:23:55.764Z,56.02
2023-07-20T23:26:28.940Z,56.09
2023-07-20T23:29:04.438Z,56.17
2023-07-20T23:31:35.381Z,56.17
2023-07-20T23:34:08.214Z,56.03
2023-07-20T23:36:41.691Z,56.27
2023-07-20T23:39:14.962Z,56.31
2023-07-20T23:41:47.307Z,56.20
2023-07-20T23:44:19.897Z,56.44
2023-07-20T23:46:52.623Z,56.51
2023-07-20T23:49:25.025Z,56.47
2023-07-20T23:51:57.341Z,56.43
2023-07-20T23:54:29.664Z,56.48
2023-07-20T23:57:02.274Z,56.64
2023-07-20T23:59:35.566Z,56.80
